sensor_id;sensor_type;location;lat;lon;timestamp;pressure;altitude;pressure_sealevel;temperature;humidity
10261;BME280;5175;42.606;23.388;2023-02-04T00:01:45;93512.81;;;1.67;91.15
10261;BME280;5175;42.606;23.388;2023-02-04T00:04:12;93515.22;;;1.69;92.64
10261;BME280;5175;42.606;23.388;2023-02-04T00:06:39;93524.81;;;1.63;94.96
10261;BME280;5175;42.606;23.388;2023-02-04T00:09:05;93497.28;;;1.66;95.14
10261;BME280;5175;42.606;23.388;2023-02-04T00:11:32;93480.63;;;1.37;98.00
10261;BME280;5175;42.606;23.388;2023-02-04T00:13:59;93507.56;;;1.44;100.00
10261;BME280;5175;42.606;23.388;2023-02-04T00:16:27;93499.56;;;1.39;100.00
10261;BME280;5175;42.606;23.388;2023-02-04T00:18:54;93511.00;;;1.45;100.00
10261;BME280;5175;42.606;23.388;2023-02-04T00:21:20;93506.44;;;1.40;100.00
10261;BME280;5175;42.606;23.388;2023-02-04T00:23:47;93493.78;;;1.25;100.00
10261;BME280;5175;42.606;23.388;2023-02-04T00:26:15;93492.72;;;1.03;100.00
10261;BME280;5175;42.606;23.388;2023-02-04T00:28:42;93497.28;;;1.19;100.00
10261;BME280;5175;42.606;23.388;2023-02-04T00:31:09;93490.53;;;1.23;100.00
10261;BME280;5175;42.606;23.388;2023-02-04T00:33:37;93495.91;;;1.28;100.00
10261;BME280;5175;42.606;23.388;2023-02-04T00:36:04;93482.22;;;1.26;100.00
10261;BME280;5175;42.606;23.388;2023-02-04T00:38:30;93496.28;;;1.20;100.00
10261;BME280;5175;42.606;23.388;2023-02-04T00:40:57;93491.69;;;1.27;100.00
10261;BME280;5175;42.606;23.388;2023-02-04T00:43:24;93488.50;;;1.25;100.00
10261;BME280;5175;42.606;23.388;2023-02-04T00:45:51;93487.91;;;1.23;100.00
10261;BME280;5175;42.606;23.388;2023-02-04T00:48:17;93495.91;;;1.28;100.00
10261;BME280;5175;42.606;23.388;2023-02-04T00:50:45;93484.28;;;1.13;100.00
10261;BME280;5175;42.606;23.388;2023-02-04T00:53:12;93487.94;;;1.12;100.00
10261;BME280;5175;42.606;23.388;2023-02-04T00:55:39;93480.03;;;1.12;100.00
10261;BME280;5175;42.606;23.388;2023-02-04T00:58:05;93483.38;;;1.07;100.00
10261;BME280;5175;42.606;23.388;2023-02-04T01:00:32;93469.06;;;0.80;100.00
10261;BME280;5175;42.606;23.388;2023-02-04T01:02:59;93467.13;;;0.99;100.00
10261;BME280;5175;42.606;23.388;2023-02-04T01:05:26;93453.19;;;0.75;100.00
10261;BME280;5175;42.606;23.388;2023-02-04T01:07:55;93471.00;;;0.73;100.00
10261;BME280;5175;42.606;23.388;2023-02-04T01:10:21;93458.91;;;0.84;100.00
10261;BME280;5175;42.606;23.388;2023-02-04T01:12:48;93443.25;;;0.77;100.00
10261;BME280;5175;42.606;23.388;2023-02-04T01:15:15;93444.41;;;0.81;100.00
10261;BME280;5175;42.606;23.388;2023-02-04T01:17:42;93429.34;;;0.88;100.00
10261;BME280;5175;42.606;23.388;2023-02-04T01:20:09;93430.25;;;0.82;100.00
10261;BME280;5175;42.606;23.388;2023-02-04T01:22:36;93429.34;;;0.88;100.00
10261;BME280;5175;42.606;23.388;2023-02-04T01:25:05;93424.53;;;0.85;100.00
10261;BME280;5175;42.606;23.388;2023-02-04T01:27:32;93417.47;;;0.74;100.00
10261;BME280;5175;42.606;23.388;2023-02-04T01:29:59;93417.81;;;0.89;100.00
10261;BME280;5175;42.606;23.388;2023-02-04T01:32:26;93405.94;;;0.87;100.00
10261;BME280;5175;42.606;23.388;2023-02-04T01:34:52;93410.59;;;0.73;100.00
10261;BME280;5175;42.606;23.388;2023-02-04T01:37:19;93399.97;;;0.80;100.00
10261;BME280;5175;42.606;23.388;2023-02-04T01:39:46;93398.75;;;0.82;100.00
10261;BME280;5175;42.606;23.388;2023-02-04T01:42:14;93395.09;;;0.83;100.00
10261;BME280;5175;42.606;23.388;2023-02-04T01:44:41;93393.84;;;0.97;100.00
10261;BME280;5175;42.606;23.388;2023-02-04T01:47:08;93390.63;;;0.95;100.00
10261;BME280;5175;42.606;23.388;2023-02-04T01:49:35;93395.41;;;0.98;100.00
10261;BME280;5175;42.606;23.388;2023-02-04T01:52:02;93380.72;;;0.97;100.00
10261;BME280;5175;42.606;23.388;2023-02-04T01:54:30;93384.03;;;0.81;100.00
10261;BME280;5175;42.606;23.388;2023-02-04T01:56:57;93389.38;;;0.86;100.00
10261;BME280;5175;42.606;23.388;2023-02-04T01:59:25;93375.88;;;1.06;100.00
10261;BME280;5175;42.606;23.388;2023-02-04T02:01:53;93364.59;;;0.94;100.00
10261;BME280;5175;42.606;23.388;2023-02-04T02:04:25;93380.34;;;1.05;100.00
10261;BME280;5175;42.606;23.388;2023-02-04T02:06:56;93375.22;;;0.99;100.00
10261;BME280;5175;42.606;23.388;2023-02-04T02:09:24;93368.16;;;0.99;100.00
10261;BME280;5175;42.606;23.388;2023-02-04T02:11:52;93376.94;;;0.93;100.00
10261;BME280;5175;42.606;23.388;2023-02-04T02:14:19;93376.47;;;0.96;100.00
10261;BME280;5175;42.606;23.388;2023-02-04T02:16:47;93351.94;;;0.56;100.00
10261;BME280;5175;42.606;23.388;2023-02-04T02:19:23;93350.44;;;0.83;100.00
10261;BME280;5175;42.606;23.388;2023-02-04T02:21:57;93352.59;;;1.09;100.00
10261;BME280;5175;42.606;23.388;2023-02-04T02:24:30;93364.72;;;0.99;100.00
10261;BME280;5175;42.606;23.388;2023-02-04T02:27:01;93340.63;;;0.90;100.00
10261;BME280;5175;42.606;23.388;2023-02-04T02:29:29;93341.44;;;1.02;100.00
10261;BME280;5175;42.606;23.388;2023-02-04T02:31:56;93335.38;;;0.90;100.00
10261;BME280;5175;42.606;23.388;2023-02-04T02:34:23;93325.00;;;0.84;100.00
10261;BME280;5175;42.606;23.388;2023-02-04T02:36:51;93316.09;;;0.85;100.00
10261;BME280;5175;42.606;23.388;2023-02-04T02:39:18;93302.50;;;0.99;100.00
10261;BME280;5175;42.606;23.388;2023-02-04T02:41:47;93291.44;;;0.97;100.00
10261;BME280;5175;42.606;23.388;2023-02-04T02:44:15;93270.81;;;0.66;100.00
10261;BME280;5175;42.606;23.388;2023-02-04T02:46:43;93271.03;;;0.76;100.00
10261;BME280;5175;42.606;23.388;2023-02-04T02:49:12;93270.22;;;0.76;100.00
10261;BME280;5175;42.606;23.388;2023-02-04T02:51:40;93264.16;;;0.75;100.00
10261;BME280;5175;42.606;23.388;2023-02-04T02:54:13;93263.34;;;0.75;100.00
10261;BME280;5175;42.606;23.388;2023-02-04T02:56:43;93266.44;;;0.83;100.00
10261;BME280;5175;42.606;23.388;2023-02-04T02:59:15;93276.84;;;0.78;100.00
10261;BME280;5175;42.606;23.388;2023-02-04T03:01:43;93267.84;;;0.62;100.00
10261;BME280;5175;42.606;23.388;2023-02-04T03:04:10;93279.25;;;0.68;100.00
10261;BME280;5175;42.606;23.388;2023-02-04T03:06:38;93262.81;;;0.73;100.00
10261;BME280;5175;42.606;23.388;2023-02-04T03:09:05;93283.91;;;0.78;100.00
10261;BME280;5175;42.606;23.388;2023-02-04T03:11:32;93279.00;;;0.81;100.00
10261;BME280;5175;42.606;23.388;2023-02-04T03:13:59;93271.03;;;0.76;100.00
10261;BME280;5175;42.606;23.388;2023-02-04T03:16:28;93275.00;;;0.79;100.00
10261;BME280;5175;42.606;23.388;2023-02-04T03:18:57;93280.94;;;0.86;100.00
10261;BME280;5175;42.606;23.388;2023-02-04T03:21:24;93285.16;;;0.75;100.00
10261;BME280;5175;42.606;23.388;2023-02-04T03:23:51;93294.75;;;0.70;100.00
10261;BME280;5175;42.606;23.388;2023-02-04T03:26:21;93296.22;;;0.77;100.00
10261;BME280;5175;42.606;23.388;2023-02-04T03:28:48;93266.59;;;0.65;100.00
10261;BME280;5175;42.606;23.388;2023-02-04T03:31:15;93256.31;;;0.52;100.00
10261;BME280;5175;42.606;23.388;2023-02-04T03:33:43;93266.47;;;0.72;100.00
10261;BME280;5175;42.606;23.388;2023-02-04T03:36:09;93268.63;;;0.63;100.00
10261;BME280;5175;42.606;23.388;2023-02-04T03:38:36;93268.28;;;0.71;100.00
10261;BME280;5175;42.606;23.388;2023-02-04T03:41:03;93254.03;;;0.67;100.00
10261;BME280;5175;42.606;23.388;2023-02-04T03:43:30;93262.00;;;0.72;100.00
10261;BME280;5175;42.606;23.388;2023-02-04T03:45:57;93279.81;;;0.82;100.00
10261;BME280;5175;42.606;23.388;2023-02-04T03:48:23;93277.28;;;0.87;100.00
10261;BME280;5175;42.606;23.388;2023-02-04T03:50:51;93253.44;;;0.77;100.00
10261;BME280;5175;42.606;23.388;2023-02-04T03:53:19;93135.19;;;-0.20;100.00
10261;BME280;5175;42.606;23.388;2023-02-04T03:55:46;93241.28;;;0.59;100.00
10261;BME280;5175;42.606;23.388;2023-02-04T03:58:13;93244.31;;;0.68;100.00
10261;BME280;5175;42.606;23.388;2023-02-04T04:00:39;93234.03;;;0.78;100.00
10261;BME280;5175;42.606;23.388;2023-02-04T04:03:06;93214.16;;;0.82;100.00
10261;BME280;5175;42.606;23.388;2023-02-04T04:05:33;93202.97;;;0.86;100.00
10261;BME280;5175;42.606;23.388;2023-02-04T04:08:01;93200.53;;;0.96;100.00
10261;BME280;5175;42.606;23.388;2023-02-04T04:10:28;93199.78;;;1.12;100.00
10261;BME280;5175;42.606;23.388;2023-02-04T04:12:55;93189.28;;;1.12;100.00
10261;BME280;5175;42.606;23.388;2023-02-04T04:15:22;93180.22;;;1.20;100.00
10261;BME280;5175;42.606;23.388;2023-02-04T04:17:49;93176.63;;;0.81;100.00
10261;BME280;5175;42.606;23.388;2023-02-04T04:20:16;93182.00;;;1.03;100.00
10261;BME280;5175;42.606;23.388;2023-02-04T04:22:42;93171.06;;;1.22;100.00
10261;BME280;5175;42.606;23.388;2023-02-04T04:25:11;93182.78;;;1.32;100.00
10261;BME280;5175;42.606;23.388;2023-02-04T04:27:38;93178.88;;;1.34;100.00
10261;BME280;5175;42.606;23.388;2023-02-04T04:30:05;93184.38;;;1.33;100.00
10261;BME280;5175;42.606;23.388;2023-02-04T04:32:31;93207.56;;;1.36;100.00
10261;BME280;5175;42.606;23.388;2023-02-04T04:34:58;93192.66;;;1.24;100.00
10261;BME280;5175;42.606;23.388;2023-02-04T04:37:25;93193.41;;;1.08;100.00
10261;BME280;5175;42.606;23.388;2023-02-04T04:39:51;93204.97;;;1.24;100.00
10261;BME280;5175;42.606;23.388;2023-02-04T04:42:19;93215.03;;;1.27;100.00
10261;BME280;5175;42.606;23.388;2023-02-04T04:44:46;93209.13;;;1.37;100.00
10261;BME280;5175;42.606;23.388;2023-02-04T04:47:13;93221.00;;;1.39;100.00
10261;BME280;5175;42.606;23.388;2023-02-04T04:49:39;93238.00;;;1.48;100.00
10261;BME280;5175;42.606;23.388;2023-02-04T04:52:06;93236.31;;;1.42;100.00
10261;BME280;5175;42.606;23.388;2023-02-04T04:54:33;93232.75;;;1.48;100.00
10261;BME280;5175;42.606;23.388;2023-02-04T04:56:59;93233.41;;;1.55;100.00
10261;BME280;5175;42.606;23.388;2023-02-04T04:59:28;93239.69;;;1.54;100.00
10261;BME280;5175;42.606;23.388;2023-02-04T05:01:54;93242.09;;;1.56;100.00
10261;BME280;5175;42.606;23.388;2023-02-04T05:04:21;93249.50;;;1.59;100.00
10261;BME280;5175;42.606;23.388;2023-02-04T05:06:48;93231.56;;;1.56;100.00
10261;BME280;5175;42.606;23.388;2023-02-04T05:09:14;93239.69;;;1.54;100.00
10261;BME280;5175;42.606;23.388;2023-02-04T05:11:41;93230.75;;;1.55;100.00
10261;BME280;5175;42.606;23.388;2023-02-04T05:14:08;93239.13;;;1.52;100.00
10261;BME280;5175;42.606;23.388;2023-02-04T05:16:36;93224.34;;;1.35;100.00
10261;BME280;5175;42.606;23.388;2023-02-04T05:19:03;93217.41;;;1.28;100.00
10261;BME280;5175;42.606;23.388;2023-02-04T05:21:30;93236.69;;;1.34;100.00
10261;BME280;5175;42.606;23.388;2023-02-04T05:23:56;93233.94;;;1.41;100.00
10261;BME280;5175;42.606;23.388;2023-02-04T05:26:23;93234.50;;;1.43;100.00
10261;BME280;5175;42.606;23.388;2023-02-04T05:28:51;93257.97;;;1.33;100.00
10261;BME280;5175;42.606;23.388;2023-02-04T05:31:18;93242.38;;;1.43;100.00
10261;BME280;5175;42.606;23.388;2023-02-04T05:33:46;93255.78;;;1.30;100.00
10261;BME280;5175;42.606;23.388;2023-02-04T05:36:12;93245.66;;;1.21;100.00
10261;BME280;5175;42.606;23.388;2023-02-04T05:38:39;93261.75;;;1.25;100.00
10261;BME280;5175;42.606;23.388;2023-02-04T05:41:06;93270.16;;;1.39;100.00
10261;BME280;5175;42.606;23.388;2023-02-04T05:43:32;93273.53;;;1.22;100.00
10261;BME280;5175;42.606;23.388;2023-02-04T05:45:59;93290.03;;;1.35;100.00
10261;BME280;5175;42.606;23.388;2023-02-04T05:48:26;93292.47;;;1.36;100.00
10261;BME280;5175;42.606;23.388;2023-02-04T05:50:54;93299.47;;;1.47;100.00
10261;BME280;5175;42.606;23.388;2023-02-04T05:53:21;93281.16;;;1.36;100.00
10261;BME280;5175;42.606;23.388;2023-02-04T05:55:47;93302.56;;;1.44;100.00
10261;BME280;5175;42.606;23.388;2023-02-04T05:58:14;93294.13;;;1.42;100.00
10261;BME280;5175;42.606;23.388;2023-02-04T06:00:41;93282.31;;;1.56;100.00
10261;BME280;5175;42.606;23.388;2023-02-04T06:03:08;93268.59;;;1.54;100.00
10261;BME280;5175;42.606;23.388;2023-02-04T06:05:34;93260.59;;;1.49;100.00
10261;BME280;5175;42.606;23.388;2023-02-04T06:08:03;93254.84;;;1.64;100.00
10261;BME280;5175;42.606;23.388;2023-02-04T06:10:29;93257.56;;;1.85;100.00
10261;BME280;5175;42.606;23.388;2023-02-04T06:12:56;93265.47;;;2.02;100.00
10261;BME280;5175;42.606;23.388;2023-02-04T06:15:23;93277.28;;;2.16;100.00
10261;BME280;5175;42.606;23.388;2023-02-04T06:17:49;93278.22;;;2.27;98.36
10261;BME280;5175;42.606;23.388;2023-02-04T06:20:17;93259.06;;;2.48;92.92
10261;BME280;5175;42.606;23.388;2023-02-04T06:22:44;93275.34;;;2.62;90.37
10261;BME280;5175;42.606;23.388;2023-02-04T06:25:13;93276.91;;;2.63;90.17
10261;BME280;5175;42.606;23.388;2023-02-04T06:27:40;93281.69;;;2.66;91.21
10261;BME280;5175;42.606;23.388;2023-02-04T06:30:09;93278.91;;;2.72;89.23
10261;BME280;5175;42.606;23.388;2023-02-04T06:32:36;93293.00;;;2.83;89.55
10261;BME280;5175;42.606;23.388;2023-02-04T06:35:02;93285.66;;;2.85;89.46
10261;BME280;5175;42.606;23.388;2023-02-04T06:37:29;93284.13;;;2.89;88.59
10261;BME280;5175;42.606;23.388;2023-02-04T06:39:56;93287.38;;;2.96;85.36
10261;BME280;5175;42.606;23.388;2023-02-04T06:42:24;93290.81;;;2.96;82.64
10261;BME280;5175;42.606;23.388;2023-02-04T06:44:51;93294.00;;;2.98;82.70
10261;BME280;5175;42.606;23.388;2023-02-04T06:47:18;93295.34;;;3.01;82.06
10261;BME280;5175;42.606;23.388;2023-02-04T06:49:45;93262.94;;;2.79;83.70
10261;BME280;5175;42.606;23.388;2023-02-04T06:52:12;93267.28;;;2.90;83.00
10261;BME280;5175;42.606;23.388;2023-02-04T06:54:39;93283.47;;;2.98;83.74
10261;BME280;5175;42.606;23.388;2023-02-04T06:57:05;93290.13;;;3.06;83.24
10261;BME280;5175;42.606;23.388;2023-02-04T06:59:34;93281.63;;;2.99;84.02
10261;BME280;5175;42.606;23.388;2023-02-04T07:02:02;93280.41;;;3.06;83.76
10261;BME280;5175;42.606;23.388;2023-02-04T07:04:29;93272.22;;;3.03;82.55
10261;BME280;5175;42.606;23.388;2023-02-04T07:06:56;93281.59;;;3.15;81.38
10261;BME280;5175;42.606;23.388;2023-02-04T07:09:23;93282.69;;;3.20;81.58
10261;BME280;5175;42.606;23.388;2023-02-04T07:11:49;93302.16;;;3.18;82.06
10261;BME280;5175;42.606;23.388;2023-02-04T07:14:16;93246.84;;;2.97;83.43
10261;BME280;5175;42.606;23.388;2023-02-04T07:16:45;93276.38;;;3.21;82.84
10261;BME280;5175;42.606;23.388;2023-02-04T07:19:12;93278.25;;;3.25;84.40
10261;BME280;5175;42.606;23.388;2023-02-04T07:21:38;93278.88;;;3.32;83.91
10261;BME280;5175;42.606;23.388;2023-02-04T07:24:05;93241.06;;;3.00;84.53
10261;BME280;5175;42.606;23.388;2023-02-04T07:26:32;93275.50;;;3.37;84.89
10261;BME280;5175;42.606;23.388;2023-02-04T07:28:59;93267.03;;;3.35;85.54
10261;BME280;5175;42.606;23.388;2023-02-04T07:31:26;93274.56;;;3.48;82.64
10261;BME280;5175;42.606;23.388;2023-02-04T07:33:54;93281.72;;;3.52;82.00
10261;BME280;5175;42.606;23.388;2023-02-04T07:36:21;93285.59;;;3.45;80.59
10261;BME280;5175;42.606;23.388;2023-02-04T07:38:48;93279.56;;;3.49;79.76
10261;BME280;5175;42.606;23.388;2023-02-04T07:41:14;93277.25;;;3.53;80.61
10261;BME280;5175;42.606;23.388;2023-02-04T07:43:41;93257.59;;;3.65;81.15
10261;BME280;5175;42.606;23.388;2023-02-04T07:46:08;93272.28;;;3.83;80.71
10261;BME280;5175;42.606;23.388;2023-02-04T07:48:34;93267.16;;;3.98;80.68
10261;BME280;5175;42.606;23.388;2023-02-04T07:51:02;93267.44;;;4.02;78.99
10261;BME280;5175;42.606;23.388;2023-02-04T07:53:29;93270.25;;;4.22;79.17
10261;BME280;5175;42.606;23.388;2023-02-04T07:55:56;93268.13;;;4.19;78.89
10261;BME280;5175;42.606;23.388;2023-02-04T07:58:23;93268.53;;;4.37;77.70
10261;BME280;5175;42.606;23.388;2023-02-04T08:00:49;93271.81;;;4.55;75.19
10261;BME280;5175;42.606;23.388;2023-02-04T08:03:16;93270.97;;;4.44;75.49
10261;BME280;5175;42.606;23.388;2023-02-04T08:05:43;93285.78;;;4.50;75.95
10261;BME280;5175;42.606;23.388;2023-02-04T08:08:11;93268.69;;;4.58;75.08
10261;BME280;5175;42.606;23.388;2023-02-04T08:10:37;93275.34;;;4.65;74.87
10261;BME280;5175;42.606;23.388;2023-02-04T08:13:04;93271.16;;;4.69;75.27
10261;BME280;5175;42.606;23.388;2023-02-04T08:15:31;93270.88;;;4.71;75.80
10261;BME280;5175;42.606;23.388;2023-02-04T08:17:58;93271.63;;;4.61;75.99
10261;BME280;5175;42.606;23.388;2023-02-04T08:20:24;93266.19;;;4.09;78.39
10261;BME280;5175;42.606;23.388;2023-02-04T08:22:51;93271.59;;;4.24;79.27
10261;BME280;5175;42.606;23.388;2023-02-04T08:25:19;93260.28;;;4.29;79.82
10261;BME280;5175;42.606;23.388;2023-02-04T08:27:46;93248.97;;;4.33;79.15
10261;BME280;5175;42.606;23.388;2023-02-04T08:30:13;93252.94;;;4.31;79.42
10261;BME280;5175;42.606;23.388;2023-02-04T08:32:40;93260.09;;;4.35;79.72
10261;BME280;5175;42.606;23.388;2023-02-04T08:35:07;93251.41;;;4.40;79.98
10261;BME280;5175;42.606;23.388;2023-02-04T08:37:34;93254.16;;;4.60;80.18
10261;BME280;5175;42.606;23.388;2023-02-04T08:40:01;93252.13;;;4.67;79.09
10261;BME280;5175;42.606;23.388;2023-02-04T08:42:29;93247.38;;;4.69;78.11
10261;BME280;5175;42.606;23.388;2023-02-04T08:44:56;93257.69;;;4.71;76.18
10261;BME280;5175;42.606;23.388;2023-02-04T08:47:22;93255.06;;;4.76;75.38
10261;BME280;5175;42.606;23.388;2023-02-04T08:49:49;93254.88;;;4.87;75.32
10261;BME280;5175;42.606;23.388;2023-02-04T08:52:16;93252.25;;;4.87;75.16
10261;BME280;5175;42.606;23.388;2023-02-04T08:54:43;93244.47;;;4.71;75.52
10261;BME280;5175;42.606;23.388;2023-02-04T08:57:10;93252.22;;;4.82;77.36
10261;BME280;5175;42.606;23.388;2023-02-04T08:59:38;93252.97;;;4.83;76.49
10261;BME280;5175;42.606;23.388;2023-02-04T09:02:05;93247.63;;;4.73;77.81
10261;BME280;5175;42.606;23.388;2023-02-04T09:04:32;93233.88;;;4.66;78.03
10261;BME280;5175;42.606;23.388;2023-02-04T09:06:58;93190.53;;;4.62;76.88
10261;BME280;5175;42.606;23.388;2023-02-04T09:09:25;93257.22;;;4.84;74.76
10261;BME280;5175;42.606;23.388;2023-02-04T09:11:52;93256.94;;;4.80;76.02
10261;BME280;5175;42.606;23.388;2023-02-04T09:14:18;93246.69;;;4.89;77.21
10261;BME280;5175;42.606;23.388;2023-02-04T09:16:46;93238.81;;;4.99;76.63
10261;BME280;5175;42.606;23.388;2023-02-04T09:19:13;93235.38;;;5.03;76.13
10261;BME280;5175;42.606;23.388;2023-02-04T09:21:41;93234.94;;;5.22;74.95
10261;BME280;5175;42.606;23.388;2023-02-04T09:24:08;93245.97;;;5.03;71.60
10261;BME280;5175;42.606;23.388;2023-02-04T09:26:34;93237.97;;;4.93;72.93
10261;BME280;5175;42.606;23.388;2023-02-04T09:29:01;93239.34;;;5.01;73.07
10261;BME280;5175;42.606;23.388;2023-02-04T09:31:28;93238.81;;;5.04;74.50
10261;BME280;5175;42.606;23.388;2023-02-04T09:33:56;93236.50;;;5.13;71.74
10261;BME280;5175;42.606;23.388;2023-02-04T09:36:24;93248.59;;;5.03;71.53
10261;BME280;5175;42.606;23.388;2023-02-04T09:38:53;93240.75;;;5.19;71.05
10261;BME280;5175;42.606;23.388;2023-02-04T09:41:20;93248.84;;;4.97;71.78
10261;BME280;5175;42.606;23.388;2023-02-04T09:43:47;93248.25;;;4.85;74.46
10261;BME280;5175;42.606;23.388;2023-02-04T09:46:18;93216.53;;;4.80;77.13
10261;BME280;5175;42.606;23.388;2023-02-04T09:48:46;93227.63;;;4.82;79.30
10261;BME280;5175;42.606;23.388;2023-02-04T09:51:17;93224.66;;;4.73;79.83
10261;BME280;5175;42.606;23.388;2023-02-04T09:53:44;93227.13;;;4.85;80.27
10261;BME280;5175;42.606;23.388;2023-02-04T09:56:13;93223.81;;;4.63;80.83
10261;BME280;5175;42.606;23.388;2023-02-04T09:58:40;93229.22;;;4.41;83.42
10261;BME280;5175;42.606;23.388;2023-02-04T10:01:11;93189.63;;;4.41;85.08
10261;BME280;5175;42.606;23.388;2023-02-04T10:03:40;93201.84;;;4.57;84.79
10261;BME280;5175;42.606;23.388;2023-02-04T10:06:12;93201.94;;;4.67;83.24
10261;BME280;5175;42.606;23.388;2023-02-04T10:08:41;93193.75;;;4.74;81.39
10261;BME280;5175;42.606;23.388;2023-02-04T10:11:08;93195.63;;;4.78;79.38
10261;BME280;5175;42.606;23.388;2023-02-04T10:13:38;93207.66;;;4.54;79.12
10261;BME280;5175;42.606;23.388;2023-02-04T10:16:13;93161.56;;;4.35;78.07
10261;BME280;5175;42.606;23.388;2023-02-04T10:18:40;93188.38;;;4.54;78.59
10261;BME280;5175;42.606;23.388;2023-02-04T10:21:13;93176.28;;;4.68;77.01
10261;BME280;5175;42.606;23.388;2023-02-04T10:23:44;93173.97;;;4.81;76.80
10261;BME280;5175;42.606;23.388;2023-02-04T10:26:13;93181.38;;;4.79;76.28
10261;BME280;5175;42.606;23.388;2023-02-04T10:28:40;93185.84;;;4.74;76.93
10261;BME280;5175;42.606;23.388;2023-02-04T10:31:29;93177.06;;;4.68;77.94
10261;BME280;5175;42.606;23.388;2023-02-04T10:34:11;93174.22;;;4.75;77.91
10261;BME280;5175;42.606;23.388;2023-02-04T10:36:39;93184.13;;;4.53;77.72
10261;BME280;5175;42.606;23.388;2023-02-04T10:39:12;93188.72;;;4.67;78.59
10261;BME280;5175;42.606;23.388;2023-02-04T10:41:44;93170.91;;;4.48;80.19
10261;BME280;5175;42.606;23.388;2023-02-04T10:44:13;93169.19;;;4.73;80.60
10261;BME280;5175;42.606;23.388;2023-02-04T10:46:40;93159.28;;;4.49;82.74
10261;BME280;5175;42.606;23.388;2023-02-04T10:49:20;93172.09;;;4.30;86.48
10261;BME280;5175;42.606;23.388;2023-02-04T10:51:48;93166.00;;;4.24;88.20
10261;BME280;5175;42.606;23.388;2023-02-04T10:54:18;93156.69;;;4.12;88.76
10261;BME280;5175;42.606;23.388;2023-02-04T10:57:07;93155.38;;;4.14;89.85
10261;BME280;5175;42.606;23.388;2023-02-04T10:59:35;93153.84;;;4.18;89.51
10261;BME280;5175;42.606;23.388;2023-02-04T11:02:23;93143.06;;;4.30;88.49
10261;BME280;5175;42.606;23.388;2023-02-04T11:04:55;93138.66;;;4.40;86.34
10261;BME280;5175;42.606;23.388;2023-02-04T11:07:22;93131.81;;;4.50;86.32
10261;BME280;5175;42.606;23.388;2023-02-04T11:09:51;93143.84;;;4.77;84.87
10261;BME280;5175;42.606;23.388;2023-02-04T11:12:19;93147.56;;;4.81;83.41
10261;BME280;5175;42.606;23.388;2023-02-04T11:14:53;93141.25;;;4.87;79.81
10261;BME280;5175;42.606;23.388;2023-02-04T11:17:20;93136.50;;;4.94;81.18
10261;BME280;5175;42.606;23.388;2023-02-04T11:19:47;93141.31;;;5.07;80.56
10261;BME280;5175;42.606;23.388;2023-02-04T11:22:22;93139.75;;;5.27;80.06
10261;BME280;5175;42.606;23.388;2023-02-04T11:24:51;93130.00;;;5.37;78.41
10261;BME280;5175;42.606;23.388;2023-02-04T11:27:21;93139.81;;;5.47;77.04
10261;BME280;5175;42.606;23.388;2023-02-04T11:29:48;93115.44;;;5.25;76.82
10261;BME280;5175;42.606;23.388;2023-02-04T11:32:29;93137.41;;;5.40;75.99
10261;BME280;5175;42.606;23.388;2023-02-04T11:35:21;93147.66;;;5.22;76.33
10261;BME280;5175;42.606;23.388;2023-02-04T11:37:48;93154.50;;;4.97;78.29
10261;BME280;5175;42.606;23.388;2023-02-04T11:40:26;93133.84;;;4.89;79.85
10261;BME280;5175;42.606;23.388;2023-02-04T11:43:01;93150.66;;;4.68;79.56
10261;BME280;5175;42.606;23.388;2023-02-04T11:45:31;93146.47;;;4.72;80.96
10261;BME280;5175;42.606;23.388;2023-02-04T11:48:01;93146.91;;;4.54;82.47
10261;BME280;5175;42.606;23.388;2023-02-04T11:50:30;93153.84;;;4.75;83.57
10261;BME280;5175;42.606;23.388;2023-02-04T11:52:58;93140.88;;;4.64;83.84
10261;BME280;5175;42.606;23.388;2023-02-04T11:55:28;93140.22;;;5.03;84.35
10261;BME280;5175;42.606;23.388;2023-02-04T11:57:56;93131.53;;;5.13;84.15
10261;BME280;5175;42.606;23.388;2023-02-04T12:00:24;93131.28;;;5.15;81.40
10261;BME280;5175;42.606;23.388;2023-02-04T12:02:55;93140.81;;;5.16;82.86
10261;BME280;5175;42.606;23.388;2023-02-04T12:05:35;93126.50;;;5.12;82.55
10261;BME280;5175;42.606;23.388;2023-02-04T12:08:09;93107.94;;;4.91;84.21
10261;BME280;5175;42.606;23.388;2023-02-04T12:10:37;93120.34;;;4.86;84.39
10261;BME280;5175;42.606;23.388;2023-02-04T12:13:12;93124.03;;;4.80;87.38
10261;BME280;5175;42.606;23.388;2023-02-04T12:15:51;93098.06;;;4.57;88.91
10261;BME280;5175;42.606;23.388;2023-02-04T12:18:19;93110.78;;;4.70;90.78
10261;BME280;5175;42.606;23.388;2023-02-04T12:20:46;93123.34;;;4.42;92.43
10261;BME280;5175;42.606;23.388;2023-02-04T12:23:13;93102.63;;;4.24;96.03
10261;BME280;5175;42.606;23.388;2023-02-04T12:25:41;93107.13;;;4.24;98.38
10261;BME280;5175;42.606;23.388;2023-02-04T12:28:07;93105.00;;;4.21;97.66
10261;BME280;5175;42.606;23.388;2023-02-04T12:30:34;93104.81;;;4.37;99.69
10261;BME280;5175;42.606;23.388;2023-02-04T12:33:01;93102.75;;;4.44;100.00
10261;BME280;5175;42.606;23.388;2023-02-04T12:35:28;93104.66;;;4.54;99.20
10261;BME280;5175;42.606;23.388;2023-02-04T12:37:54;93103.38;;;4.67;97.39
10261;BME280;5175;42.606;23.388;2023-02-04T12:40:22;93106.25;;;4.65;95.67
10261;BME280;5175;42.606;23.388;2023-02-04T12:42:50;93104.97;;;4.73;96.13
10261;BME280;5175;42.606;23.388;2023-02-04T12:45:17;93106.38;;;4.90;94.34
10261;BME280;5175;42.606;23.388;2023-02-04T12:47:44;93114.25;;;4.80;90.64
10261;BME280;5175;42.606;23.388;2023-02-04T12:50:11;93113.69;;;4.73;91.68
10261;BME280;5175;42.606;23.388;2023-02-04T12:52:39;93048.50;;;4.22;89.16
10261;BME280;5175;42.606;23.388;2023-02-04T12:55:07;93128.66;;;4.53;87.93
10261;BME280;5175;42.606;23.388;2023-02-04T12:57:34;93108.78;;;4.35;86.14
10261;BME280;5175;42.606;23.388;2023-02-04T13:00:02;93110.31;;;4.26;84.93
10261;BME280;5175;42.606;23.388;2023-02-04T13:02:29;93112.41;;;4.24;85.22
10261;BME280;5175;42.606;23.388;2023-02-04T13:04:56;93107.69;;;4.26;85.61
10261;BME280;5175;42.606;23.388;2023-02-04T13:07:23;93081.31;;;4.31;84.73
10261;BME280;5175;42.606;23.388;2023-02-04T13:09:49;93120.47;;;4.49;84.31